Time;durP1;ratioP1;P1;durP2;ratioP2;P2;SDS_P1;SDS_P2;PMS_P1;PMS_P2;Temp;Humidity;BMP_temperature;BMP_pressure;BME280_temperature;BME280_humidity;BME280_pressure;Samples;Min_cycle;Max_cycle;Signal;HPM_P1;HPM_P2
2022/07/09 00:00:30;;;;;;;29.58;5.03;;;;;;;16.23;100.00;99043.09;5061495;28;20040;-59
2022/07/09 00:02:55;;;;;;;24.92;4.60;;;;;;;16.10;100.00;99032.28;5062788;28;20653;-58
2022/07/09 00:05:20;;;;;;;26.00;4.47;;;;;;;15.99;100.00;99030.19;5062017;28;20050;-58
2022/07/09 00:07:46;;;;;;;27.90;5.07;;;;;;;15.77;100.00;99027.69;5063616;28;20111;-58
2022/07/09 00:10:11;;;;;;;35.78;5.72;;;;;;;15.77;100.00;99035.59;5061707;28;20119;-60
2022/07/09 00:12:37;;;;;;;26.85;4.93;;;;;;;15.86;100.00;99027.28;5063492;28;20052;-59
2022/07/09 00:15:03;;;;;;;26.48;5.07;;;;;;;15.72;100.00;99030.50;5062164;28;20021;-58
2022/07/09 00:17:29;;;;;;;25.63;5.20;;;;;;;15.34;100.00;99032.22;5061573;28;20072;-58
2022/07/09 00:19:56;;;;;;;32.50;5.18;;;;;;;15.34;100.00;99033.06;5060415;28;20881;-60
2022/07/09 00:22:21;;;;;;;23.00;4.53;;;;;;;15.78;100.00;99026.75;5062244;28;20055;-58
2022/07/09 00:24:47;;;;;;;29.88;4.97;;;;;;;15.58;100.00;99035.53;5062037;28;20508;-58
2022/07/09 00:27:12;;;;;;;24.10;4.60;;;;;;;15.56;100.00;99030.31;5062111;28;20040;-58
2022/07/09 00:29:37;;;;;;;21.35;4.63;;;;;;;15.45;100.00;99029.97;5062396;28;20027;-58
2022/07/09 00:32:03;;;;;;;26.83;5.18;;;;;;;15.12;100.00;99033.13;5060953;28;20048;-57
2022/07/09 00:34:28;;;;;;;24.35;4.95;;;;;;;14.94;100.00;99039.19;5059450;28;20036;-57
2022/07/09 00:36:54;;;;;;;29.60;4.97;;;;;;;15.34;100.00;99032.22;5059860;28;20036;-57
2022/07/09 00:39:19;;;;;;;27.05;5.00;;;;;;;15.04;100.00;99032.63;5059619;28;20029;-59
2022/07/09 00:41:44;;;;;;;22.92;4.60;;;;;;;14.98;100.00;99035.50;5060541;28;20047;-58
2022/07/09 00:44:10;;;;;;;21.55;4.25;;;;;;;15.06;100.00;99022.91;5061493;28;20039;-58
2022/07/09 00:46:35;;;;;;;20.60;4.45;;;;;;;14.91;100.00;99028.81;5061359;28;20040;-59
2022/07/09 00:49:03;;;;;;;26.50;4.90;;;;;;;14.93;100.00;99027.81;5061628;28;20023;-58
2022/07/09 00:51:30;;;;;;;23.67;4.80;;;;;;;14.62;100.00;99023.00;5060753;28;20413;-57
2022/07/09 00:53:56;;;;;;;26.27;4.97;;;;;;;15.04;100.00;99024.75;5061366;28;20024;-57
2022/07/09 00:56:23;;;;;;;21.30;4.20;;;;;;;15.29;100.00;99018.41;5062364;28;20036;-58
2022/07/09 00:58:50;;;;;;;22.75;4.47;;;;;;;14.90;100.00;99024.47;5061631;28;20032;-62
2022/07/09 01:01:15;;;;;;;27.83;5.07;;;;;;;14.64;100.00;99015.91;5059774;28;20047;-58
2022/07/09 01:03:41;;;;;;;24.27;4.60;;;;;;;14.73;100.00;99020.78;5061637;28;20025;-59
2022/07/09 01:06:07;;;;;;;27.48;5.10;;;;;;;14.47;100.00;99024.44;5060648;28;20476;-58
2022/07/09 01:08:32;;;;;;;17.73;3.85;;;;;;;14.57;100.00;99027.53;5061406;28;20397;-57
2022/07/09 01:10:58;;;;;;;27.38;4.80;;;;;;;14.39;100.00;99031.75;5059730;28;20131;-58
2022/07/09 01:13:24;;;;;;;39.63;6.13;;;;;;;14.11;100.00;99032.00;5060393;28;20111;-58
2022/07/09 01:15:50;;;;;;;23.48;4.57;;;;;;;14.15;100.00;99028.34;5060097;28;20044;-59
2022/07/09 01:18:15;;;;;;;26.98;4.80;;;;;;;14.37;100.00;99041.47;5061282;28;20390;-58
2022/07/09 01:20:40;;;;;;;23.30;4.78;;;;;;;14.31;100.00;99032.06;5060215;28;20084;-57
2022/07/09 01:23:07;;;;;;;20.77;4.35;;;;;;;14.31;100.00;99031.22;5061258;28;20044;-57
2022/07/09 01:25:41;;;;;;;28.63;5.13;;;;;;;14.11;100.00;99026.75;5060216;28;20467;-57
2022/07/09 01:28:09;;;;;;;25.25;4.82;;;;;;;14.39;100.00;99030.03;5060988;28;20037;-57
2022/07/09 01:30:37;;;;;;;32.17;5.43;;;;;;;14.12;100.00;99023.25;5059242;28;20143;-57
2022/07/09 01:33:03;;;;;;;29.45;5.35;;;;;;;13.99;100.00;99034.19;5060372;28;20051;-58
2022/07/09 01:35:28;;;;;;;26.50;5.18;;;;;;;14.12;100.00;99029.34;5059428;28;20875;-58
2022/07/09 01:37:54;;;;;;;24.65;4.70;;;;;;;14.25;100.00;99035.81;5060955;28;20110;-57
2022/07/09 01:40:20;;;;;;;24.83;5.00;;;;;;;14.13;100.00;99035.44;5059581;28;20028;-58
2022/07/09 01:42:47;;;;;;;22.98;4.63;;;;;;;14.28;100.00;99029.59;5060488;28;20619;-57
2022/07/09 01:45:13;;;;;;;26.67;5.18;;;;;;;14.00;100.00;99032.44;5059837;28;20180;-58
2022/07/09 01:47:38;;;;;;;26.25;5.00;;;;;;;13.91;100.00;99027.53;5061157;28;20115;-58
2022/07/09 01:50:04;;;;;;;46.40;6.70;;;;;;;13.92;100.00;99027.47;5060644;28;20124;-57
2022/07/09 01:52:30;;;;;;;22.08;4.63;;;;;;;14.03;100.00;99024.44;5060195;28;20063;-58
2022/07/09 01:54:56;;;;;;;23.20;4.80;;;;;;;13.99;100.00;99015.00;5061018;28;20493;-58
2022/07/09 01:57:21;;;;;;;23.35;4.43;;;;;;;14.08;100.00;99010.22;5060332;28;20276;-58
2022/07/09 01:59:46;;;;;;;26.00;4.60;;;;;;;14.35;100.00;99007.41;5060970;28;20071;-57
2022/07/09 02:02:12;;;;;;;31.23;5.78;;;;;;;14.10;100.00;99004.06;5059353;28;20476;-57
2022/07/09 02:04:38;;;;;;;23.60;4.63;;;;;;;14.16;100.00;99003.84;5060089;28;20070;-59
2022/07/09 02:07:04;;;;;;;33.40;5.30;;;;;;;14.06;100.00;99009.44;5060105;28;20089;-57
2022/07/09 02:09:29;;;;;;;23.73;4.55;;;;;;;14.30;100.00;99003.25;5061985;28;20021;-59
2022/07/09 02:11:54;;;;;;;26.67;5.03;;;;;;;14.07;100.00;98995.38;5059314;28;20036;-57
2022/07/09 02:14:20;;;;;;;26.38;5.10;;;;;;;13.97;100.00;98996.69;5061126;28;20819;-58
2022/07/09 02:16:45;;;;;;;24.15;4.72;;;;;;;13.89;100.00;98996.13;5060596;28;20508;-57
2022/07/09 02:19:11;;;;;;;23.58;4.82;;;;;;;13.82;100.00;99003.38;5060322;28;20028;-57
2022/07/09 02:21:36;;;;;;;32.92;5.72;;;;;;;13.79;100.00;99006.09;5059029;28;20072;-58
2022/07/09 02:24:02;;;;;;;33.88;5.78;;;;;;;14.23;100.00;99000.06;5059299;28;20032;-58
2022/07/09 02:26:29;;;;;;;29.05;5.10;;;;;;;14.42;100.00;98989.66;5064520;28;20062;-58
2022/07/09 02:28:58;;;;;;;24.38;4.95;;;;;;;14.37;100.00;98992.47;5065196;28;20063;-57
2022/07/09 02:31:23;;;;;;;28.58;5.28;;;;;;;14.08;100.00;98997.13;5063827;28;20044;-58
2022/07/09 02:33:48;;;;;;;28.73;5.22;;;;;;;14.37;100.00;98991.59;5063538;28;20027;-58
2022/07/09 02:36:14;;;;;;;27.70;4.75;;;;;;;14.57;100.00;98985.53;5063701;28;20493;-58
2022/07/09 02:38:39;;;;;;;19.75;4.00;;;;;;;15.12;100.00;98985.84;5064089;28;20054;-58
2022/07/09 02:41:05;;;;;;;29.67;5.05;;;;;;;14.51;100.00;98983.19;5062836;28;20040;-57
2022/07/09 02:43:30;;;;;;;34.00;5.57;;;;;;;14.36;100.00;99001.25;5063785;28;20024;-58
2022/07/09 02:45:56;;;;;;;22.05;4.65;;;;;;;14.15;100.00;98994.25;5063476;28;20032;-58
2022/07/09 02:48:22;;;;;;;31.77;5.82;;;;;;;13.83;100.00;99001.59;5064841;28;20568;-57
2022/07/09 02:50:51;;;;;;;25.33;4.82;;;;;;;14.72;100.00;98994.56;5064365;28;20074;-57
2022/07/09 02:53:18;;;;;;;29.58;4.90;;;;;;;15.08;100.00;98986.91;5063132;28;20024;-57
2022/07/09 02:55:43;;;;;;;27.42;4.95;;;;;;;14.70;100.00;98984.13;5062739;28;20729;-59
2022/07/09 02:58:10;;;;;;;22.40;4.78;;;;;;;14.26;100.00;98984.16;5063813;28;20028;-57
2022/07/09 03:00:36;;;;;;;25.80;4.90;;;;;;;14.28;100.00;98982.34;5063322;28;20036;-57
2022/07/09 03:03:01;;;;;;;26.60;4.70;;;;;;;14.45;100.00;98985.13;5063419;28;21112;-58
2022/07/09 03:05:26;;;;;;;26.25;4.97;;;;;;;14.58;100.00;98982.88;5063477;28;20040;-58
2022/07/09 03:07:52;;;;;;;23.70;4.68;;;;;;;15.09;100.00;98979.88;5064316;28;20031;-58
2022/07/09 03:10:17;;;;;;;31.52;4.93;;;;;;;14.45;100.00;98989.53;5062889;28;20023;-58
2022/07/09 03:12:42;;;;;;;23.80;4.50;;;;;;;13.95;100.00;98989.78;5063414;28;20023;-58
2022/07/09 03:15:08;;;;;;;30.40;5.22;;;;;;;14.15;100.00;99003.00;5063320;28;20036;-58
2022/07/09 03:17:34;;;;;;;25.83;5.07;;;;;;;14.17;100.00;98998.53;5080065;28;20120;-59
2022/07/09 03:20:00;;;;;;;38.28;5.97;;;;;;;14.21;100.00;98996.63;5063157;28;20094;-60
2022/07/09 03:22:26;;;;;;;27.63;5.20;;;;;;;14.29;100.00;98991.91;5062596;28;20124;-60
2022/07/09 03:24:51;;;;;;;22.38;4.78;;;;;;;14.21;100.00;98988.78;5064585;28;20107;-58
2022/07/09 03:27:17;;;;;;;28.50;5.07;;;;;;;14.50;100.00;98984.09;5062958;28;20043;-60
2022/07/09 03:29:42;;;;;;;27.77;5.03;;;;;;;14.61;100.00;98981.91;5063697;28;20383;-59
2022/07/09 03:32:08;;;;;;;22.83;4.47;;;;;;;14.73;100.00;98981.38;5062186;28;20036;-59
2022/07/09 03:34:33;;;;;;;25.45;4.45;;;;;;;14.69;100.00;98971.09;5062244;28;20066;-58
2022/07/09 03:36:59;;;;;;;26.20;4.72;;;;;;;14.64;100.00;98971.28;5062484;28;20044;-58
2022/07/09 03:39:25;;;;;;;22.73;4.68;;;;;;;14.56;100.00;98970.72;5063693;28;20064;-59
2022/07/09 03:41:51;;;;;;;29.13;4.97;;;;;;;14.72;100.00;98970.94;5061981;28;20051;-58
2022/07/09 03:44:17;;;;;;;27.88;4.88;;;;;;;14.38;100.00;98975.81;5063419;28;20024;-59
2022/07/09 03:46:42;;;;;;;22.75;4.50;;;;;;;13.82;100.00;98989.38;5062672;28;20039;-59
2022/07/09 03:49:08;;;;;;;29.23;5.00;;;;;;;13.61;100.00;99002.41;5062454;28;20029;-58
2022/07/09 03:51:33;;;;;;;26.42;4.97;;;;;;;13.87;100.00;99008.44;5062952;28;20127;-58
2022/07/09 03:53:59;;;;;;;25.10;5.00;;;;;;;14.02;100.00;98997.38;5062590;28;20532;-58
2022/07/09 03:56:24;;;;;;;24.73;4.43;;;;;;;14.67;100.00;98991.28;5063304;28;20071;-58
2022/07/09 03:58:49;;;;;;;24.73;4.75;;;;;;;14.57;100.00;98988.16;5063027;28;20036;-58
2022/07/09 04:01:15;;;;;;;26.75;4.57;;;;;;;14.82;100.00;98982.78;5061488;28;20429;-59
2022/07/09 04:03:40;;;;;;;22.83;4.97;;;;;;;15.29;100.00;98976.34;5061610;28;20098;-58
2022/07/09 04:06:06;;;;;;;26.58;4.43;;;;;;;15.70;100.00;98976.28;5061994;28;20571;-61
2022/07/09 04:08:31;;;;;;;20.60;4.30;;;;;;;14.86;100.00;98983.50;5063352;28;20139;-59
2022/07/09 04:10:56;;;;;;;23.77;4.45;;;;;;;14.63;100.00;98987.94;5061546;28;20097;-61
2022/07/09 04:13:22;;;;;;;31.77;5.75;;;;;;;14.78;100.00;98976.81;5062228;28;20031;-58
2022/07/09 04:15:47;;;;;;;21.33;4.03;;;;;;;15.34;100.00;98971.75;5062900;28;20154;-59
2022/07/09 04:18:16;;;;;;;25.00;5.13;;;;;;;15.15;100.00;98974.34;5062710;28;20661;-59
2022/07/09 04:20:41;;;;;;;27.95;4.55;;;;;;;15.38;100.00;98982.06;5061589;28;20147;-58
2022/07/09 04:23:07;;;;;;;21.95;4.13;;;;;;;15.36;100.00;98980.41;5062522;28;20123;-60
2022/07/09 04:25:32;;;;;;;19.10;4.25;;;;;;;15.21;100.00;98985.44;5061806;28;20044;-60
2022/07/09 04:27:59;;;;;;;19.50;4.32;;;;;;;15.11;100.00;98986.78;5062645;28;20032;-61
2022/07/09 04:30:28;;;;;;;26.13;4.95;;;;;;;14.72;100.00;98995.47;5060696;28;20062;-59
2022/07/09 04:32:53;;;;;;;26.90;4.90;;;;;;;15.04;100.00;98998.47;5062083;28;20029;-59
2022/07/09 04:35:18;;;;;;;27.15;5.05;;;;;;;15.27;100.00;98991.34;5060761;28;20039;-58
2022/07/09 04:37:44;;;;;;;24.40;4.82;;;;;;;15.26;100.00;98994.91;5061010;28;20720;-58
2022/07/09 04:40:10;;;;;;;41.67;6.47;;;;;;;15.38;100.00;98986.47;5058434;28;20099;-58
2022/07/09 04:42:35;;;;;;;31.25;5.25;;;;;;;15.20;100.00;98989.00;5062453;28;20017;-58
2022/07/09 04:45:01;;;;;;;27.25;5.32;;;;;;;15.00;100.00;99002.16;5054052;28;20043;-60
2022/07/09 04:47:27;;;;;;;25.20;5.00;;;;;;;15.54;100.00;98986.63;5060861;28;20028;-59
2022/07/09 04:49:52;;;;;;;28.02;4.93;;;;;;;15.95;100.00;98984.75;5061343;28;20024;-58
2022/07/09 04:52:19;;;;;;;21.05;4.50;;;;;;;15.69;100.00;98987.69;5061132;28;20414;-58
2022/07/09 04:54:45;;;;;;;23.55;4.38;;;;;;;15.81;100.00;98984.53;5061000;28;20069;-58
2022/07/09 04:57:10;;;;;;;25.98;4.80;;;;;;;16.05;100.00;98976.41;5061130;28;20524;-58
2022/07/09 04:59:36;;;;;;;25.27;5.18;;;;;;;16.80;100.00;98963.94;5062160;28;20032;-59
2022/07/09 05:02:01;;;;;;;25.25;4.85;;;;;;;16.24;100.00;98966.69;5060312;28;20033;-60
2022/07/09 05:04:27;;;;;;;24.85;4.78;;;;;;;16.31;100.00;98957.56;5061539;28;20029;-58
2022/07/09 05:06:52;;;;;;;26.67;4.85;;;;;;;16.43;100.00;98960.50;5061300;28;20113;-60
2022/07/09 05:09:17;;;;;;;23.15;4.53;;;;;;;16.41;100.00;98967.66;5059756;28;20111;-61
2022/07/09 05:11:43;;;;;;;21.30;4.47;;;;;;;16.74;100.00;98965.97;5060968;28;20458;-60
2022/07/09 05:14:08;;;;;;;23.67;4.70;;;;;;;16.90;100.00;98962.56;5061763;28;20093;-60
2022/07/09 05:16:34;;;;;;;22.23;4.63;;;;;;;17.22;100.00;98965.31;5060387;28;20044;-59
2022/07/09 05:19:00;;;;;;;25.58;5.05;;;;;;;16.86;100.00;98968.94;5061226;28;20052;-58
2022/07/09 05:21:26;;;;;;;23.38;4.85;;;;;;;16.81;100.00;98973.56;5060901;28;20123;-60
2022/07/09 05:23:51;;;;;;;22.35;4.28;;;;;;;17.32;100.00;98966.53;5061317;28;20111;-58
2022/07/09 05:26:16;;;;;;;25.60;5.15;;;;;;;17.19;100.00;98960.22;5060045;28;20037;-58
2022/07/09 05:28:42;;;;;;;18.90;4.10;;;;;;;18.08;100.00;98956.22;5061960;28;20473;-57
2022/07/09 05:31:07;;;;;;;22.88;4.50;;;;;;;18.21;100.00;98959.00;5060240;28;20075;-59
2022/07/09 05:33:33;;;;;;;27.05;5.00;;;;;;;17.47;100.00;98954.31;5060721;28;20697;-58
2022/07/09 05:35:58;;;;;;;24.63;5.00;;;;;;;18.95;100.00;98951.22;5061064;28;20507;-58
2022/07/09 05:38:23;;;;;;;23.83;4.63;;;;;;;19.05;100.00;98942.66;5060866;28;20033;-57
2022/07/09 05:40:49;;;;;;;19.25;3.90;;;;;;;19.06;100.00;98944.34;5060436;28;20474;-58
2022/07/09 05:43:14;;;;;;;21.48;4.40;;;;;;;18.66;100.00;98949.34;5060745;28;20040;-60
2022/07/09 05:45:39;;;;;;;20.95;4.00;;;;;;;18.29;100.00;98943.59;5060134;28;20036;-57
2022/07/09 05:48:05;;;;;;;26.50;4.80;;;;;;;19.32;100.00;98936.63;5061307;28;20027;-58
2022/07/09 05:50:30;;;;;;;18.48;4.00;;;;;;;19.74;100.00;98941.97;5060068;28;20042;-61
2022/07/09 05:52:56;;;;;;;18.13;3.92;;;;;;;18.74;100.00;98942.78;5060050;28;20375;-58
2022/07/09 05:55:21;;;;;;;20.67;4.25;;;;;;;18.75;100.00;98936.53;5060542;28;20032;-58
2022/07/09 05:57:47;;;;;;;21.83;3.85;;;;;;;18.97;100.00;98944.06;5061788;28;20028;-58
2022/07/09 06:00:12;;;;;;;33.00;5.55;;;;;;;18.98;100.00;98945.75;5059299;28;20086;-58
2022/07/09 06:02:38;;;;;;;17.63;3.70;;;;;;;19.14;100.00;98943.03;5061118;28;20029;-61
2022/07/09 06:05:03;;;;;;;17.40;3.83;;;;;;;19.21;100.00;98936.44;5060222;28;20024;-60
2022/07/09 06:07:29;;;;;;;19.25;4.43;;;;;;;20.28;100.00;98933.22;5060996;28;20121;-58
2022/07/09 06:09:54;;;;;;;22.20;4.32;;;;;;;20.79;100.00;98931.53;5043046;28;20020;-57
2022/07/09 06:12:19;;;;;;;17.35;3.78;;;;;;;20.97;100.00;98926.78;5060936;28;20473;-59
2022/07/09 06:14:45;;;;;;;16.50;3.60;;;;;;;20.01;100.00;98931.41;5060382;28;20025;-61
2022/07/09 06:17:11;;;;;;;23.73;4.45;;;;;;;19.62;100.00;98931.19;5061304;28;20055;-58
2022/07/09 06:19:37;;;;;;;20.77;4.30;;;;;;;20.93;100.00;98927.94;5060983;28;20071;-59
2022/07/09 06:22:02;;;;;;;19.17;4.00;;;;;;;21.30;100.00;98938.66;5060050;28;20223;-59
2022/07/09 06:24:29;;;;;;;20.20;4.15;;;;;;;22.01;100.00;98930.94;5060611;28;20138;-58
2022/07/09 06:26:55;;;;;;;12.02;3.38;;;;;;;24.24;100.00;98928.78;5060241;28;20041;-60
2022/07/09 06:29:20;;;;;;;16.35;3.75;;;;;;;25.67;76.50;98926.44;5061232;28;20074;-59
2022/07/09 06:31:46;;;;;;;16.23;3.90;;;;;;;27.33;62.69;98931.78;5060034;28;20045;-60
2022/07/09 06:34:11;;;;;;;40.83;7.25;;;;;;;24.95;72.82;98922.88;5057920;28;20478;-58
2022/07/09 06:36:38;;;;;;;15.20;3.80;;;;;;;23.12;89.89;98925.28;5058109;28;20050;-58
2022/07/09 06:41:47;;;;;;;21.20;4.13;;;;;;;23.33;90.96;98921.94;5058434;28;20102;-59
2022/07/09 06:44:13;;;;;;;17.05;3.78;;;;;;;24.56;82.81;98914.63;5060243;28;20111;-58
2022/07/09 06:46:38;;;;;;;17.98;4.47;;;;;;;22.80;93.28;98920.63;5060234;28;20043;-58
2022/07/09 06:49:04;;;;;;;18.45;3.80;;;;;;;22.58;100.00;98923.25;5060696;28;20032;-58
2022/07/09 06:51:29;;;;;;;15.52;3.60;;;;;;;22.06;100.00;98920.84;5058874;28;20127;-58
2022/07/09 06:53:55;;;;;;;19.80;4.10;;;;;;;22.38;100.00;98914.94;5060203;28;20029;-58
2022/07/09 06:56:21;;;;;;;13.73;3.72;;;;;;;21.51;100.00;98927.50;5060392;28;20131;-58
2022/07/09 06:58:46;;;;;;;17.38;4.15;;;;;;;21.29;100.00;98931.63;5061150;28;20034;-58
2022/07/09 07:01:11;;;;;;;17.13;4.10;;;;;;;22.07;100.00;98927.00;5058667;28;20098;-61
2022/07/09 07:03:37;;;;;;;22.40;4.60;;;;;;;21.91;100.00;98924.63;5059949;28;20123;-61
2022/07/09 07:06:02;;;;;;;19.88;4.40;;;;;;;22.47;100.00;98929.38;5058930;28;20036;-61
2022/07/09 07:08:27;;;;;;;16.65;4.00;;;;;;;23.92;100.00;98929.63;5055533;28;20028;-58
2022/07/09 07:10:53;;;;;;;16.83;4.03;;;;;;;24.39;97.11;98927.53;5058172;28;20037;-61
2022/07/09 07:13:18;;;;;;;17.25;3.75;;;;;;;24.81;93.19;98930.25;5063154;28;20028;-58
2022/07/09 07:15:44;;;;;;;18.23;4.30;;;;;;;22.97;100.00;98921.16;5062510;28;20044;-57
2022/07/09 07:18:10;;;;;;;17.75;4.18;;;;;;;23.58;100.00;98923.47;5063515;28;20145;-57
2022/07/09 07:20:36;;;;;;;15.57;3.67;;;;;;;24.05;96.80;98913.47;5062575;28;20646;-58
2022/07/09 07:23:01;;;;;;;16.88;3.90;;;;;;;25.50;85.87;98914.59;5063309;28;20025;-57
2022/07/09 07:25:26;;;;;;;19.30;4.05;;;;;;;27.56;68.14;98914.34;5061600;28;20047;-58
2022/07/09 07:27:52;;;;;;;16.88;3.88;;;;;;;28.09;63.33;98912.75;5063075;28;20105;-58
2022/07/09 07:30:17;;;;;;;18.25;4.35;;;;;;;26.84;64.02;98905.97;5061203;28;20038;-59
2022/07/09 07:32:43;;;;;;;14.65;3.45;;;;;;;29.72;55.10;98904.13;5063120;28;20024;-58
2022/07/09 07:35:08;;;;;;;19.90;4.45;;;;;;;29.19;55.16;98903.41;5059412;28;20462;-58
2022/07/09 07:37:34;;;;;;;12.07;3.20;;;;;;;31.51;49.65;98906.97;5061477;28;20017;-58
2022/07/09 07:39:59;;;;;;;18.33;4.07;;;;;;;30.48;47.47;98894.19;5061855;28;20102;-58
2022/07/09 07:42:24;;;;;;;13.15;3.00;;;;;;;30.66;48.87;98896.72;5061926;28;20035;-59
2022/07/09 07:44:50;;;;;;;10.02;2.80;;;;;;;31.96;44.46;98899.13;5061499;28;20040;-58
2022/07/09 07:47:15;;;;;;;10.48;2.97;;;;;;;30.77;47.89;98890.13;5059760;28;20112;-59
2022/07/09 07:49:41;;;;;;;11.73;3.10;;;;;;;30.61;47.18;98892.84;5062782;28;20059;-58
2022/07/09 07:52:06;;;;;;;8.75;2.70;;;;;;;30.96;43.99;98886.25;5062648;28;20342;-61
2022/07/09 07:54:33;;;;;;;12.30;3.05;;;;;;;29.76;47.87;98889.38;5061918;28;20028;-60
2022/07/09 07:56:58;;;;;;;12.15;3.15;;;;;;;30.85;46.01;98886.59;5058606;28;20044;-62
2022/07/09 07:59:24;;;;;;;12.10;3.03;;;;;;;31.80;42.87;98888.44;5059845;28;20036;-60
2022/07/09 08:01:49;;;;;;;9.95;3.03;;;;;;;29.51;46.79;98884.91;5061524;28;20111;-59
2022/07/09 08:04:15;;;;;;;10.80;3.05;;;;;;;30.20;46.25;98874.81;5060712;28;20036;-61
2022/07/09 08:06:40;;;;;;;10.90;3.00;;;;;;;29.22;48.17;98875.38;5062111;28;20040;-61
2022/07/09 08:09:05;;;;;;;10.20;2.83;;;;;;;27.89;51.58;98871.81;5062989;28;20033;-60
2022/07/09 08:11:31;;;;;;;8.98;2.70;;;;;;;29.63;50.61;98867.47;5061582;28;20569;-59
2022/07/09 08:13:56;;;;;;;12.93;2.92;;;;;;;28.31;51.95;98871.22;5062280;28;20685;-58
2022/07/09 08:16:22;;;;;;;11.18;2.75;;;;;;;30.20;49.10;98863.22;5061919;28;20127;-58
2022/07/09 08:18:47;;;;;;;11.35;2.72;;;;;;;30.07;47.96;98853.81;5062009;28;20157;-58
2022/07/09 08:21:13;;;;;;;10.50;2.85;;;;;;;30.73;46.21;98849.25;5061024;28;20109;-59
2022/07/09 08:23:51;;;;;;;8.43;2.63;;;;;;;30.85;46.88;98852.41;5060757;28;20028;-59
2022/07/09 08:26:18;;;;;;;9.90;2.53;;;;;;;30.96;46.28;98848.53;5057186;28;20534;-58
2022/07/09 08:28:43;;;;;;;10.05;2.78;;;;;;;28.34;51.32;98849.44;5061069;28;20035;-58
2022/07/09 08:31:09;;;;;;;8.52;2.50;;;;;;;30.16;48.43;98842.03;5061027;28;20040;-58
2022/07/09 08:33:34;;;;;;;15.13;4.60;;;;;;;26.97;53.96;98846.75;5061914;28;20032;-58
2022/07/09 08:35:59;;;;;;;12.40;3.15;;;;;;;27.76;54.24;98849.91;5061899;28;20143;-58
2022/07/09 08:38:25;;;;;;;13.25;3.28;;;;;;;27.65;55.03;98850.97;5062536;28;20458;-60
2022/07/09 08:40:50;;;;;;;13.00;3.00;;;;;;;27.36;58.41;98843.94;5060264;28;20040;-59
2022/07/09 08:43:16;;;;;;;12.18;3.10;;;;;;;27.46;59.08;98844.72;5061506;28;20638;-59
2022/07/09 08:45:45;;;;;;;12.18;3.10;;;;;;;27.09;57.30;98837.56;5060742;28;20469;-58
2022/07/09 08:48:10;;;;;;;11.13;3.13;;;;;;;27.77;59.72;98839.00;5061923;28;20116;-58
2022/07/09 08:50:36;;;;;;;10.45;2.90;;;;;;;27.78;59.42;98843.38;5060744;28;20032;-58
2022/07/09 08:53:03;;;;;;;12.80;3.10;;;;;;;28.72;57.13;98825.06;5062409;28;20809;-59
2022/07/09 08:55:28;;;;;;;11.20;3.10;;;;;;;31.70;49.57;98834.75;5057113;28;20657;-58
2022/07/09 08:57:54;;;;;;;13.40;2.95;;;;;;;30.75;48.06;98819.44;5059098;28;20565;-58
2022/07/09 09:00:19;;;;;;;14.38;3.47;;;;;;;30.43;47.41;98814.97;5059508;28;20040;-58
2022/07/09 09:02:45;;;;;;;11.07;2.95;;;;;;;30.45;46.54;98808.38;5061670;28;20029;-59
2022/07/09 09:05:13;;;;;;;12.63;3.10;;;;;;;31.84;44.09;98806.16;5061088;28;20444;-58
2022/07/09 09:07:38;;;;;;;10.77;3.00;;;;;;;29.61;46.84;98807.63;5062254;28;20119;-59
2022/07/09 09:10:04;;;;;;;15.57;3.22;;;;;;;29.55;49.03;98800.25;5060718;28;20099;-58
2022/07/09 09:12:30;;;;;;;10.25;2.70;;;;;;;28.86;53.20;98803.00;5060275;28;20040;-59
2022/07/09 09:14:55;;;;;;;10.95;3.17;;;;;;;27.34;57.94;98797.69;5060953;28;20031;-58
2022/07/09 09:17:20;;;;;;;10.35;3.15;;;;;;;27.14;58.91;98796.94;5060673;28;20874;-58
2022/07/09 09:19:46;;;;;;;12.25;3.13;;;;;;;26.89;60.46;98803.81;5061208;28;20119;-58
2022/07/09 09:22:15;;;;;;;11.55;3.05;;;;;;;26.66;61.49;98793.47;5059289;28;20045;-58
2022/07/09 09:24:42;;;;;;;12.18;3.20;;;;;;;27.16;61.43;98794.13;5074349;28;20094;-58
2022/07/09 09:27:07;;;;;;;15.57;3.55;;;;;;;26.25;67.08;98790.19;5057506;28;20759;-58
2022/07/09 09:29:36;;;;;;;12.68;3.33;;;;;;;26.27;66.12;98788.22;5058501;28;20463;-58
2022/07/09 09:32:10;;;;;;;14.38;3.33;;;;;;;25.51;70.31;98786.25;5057717;28;20044;-59
2022/07/09 09:34:35;;;;;;;15.63;3.65;;;;;;;25.69;74.03;98785.53;5060026;28;20077;-58
2022/07/09 09:37:01;;;;;;;15.02;3.35;;;;;;;25.98;73.21;98787.41;5060640;28;20044;-58
2022/07/09 09:39:31;;;;;;;14.95;3.25;;;;;;;24.94;79.51;98795.75;5061050;28;20129;-59
2022/07/09 09:41:58;;;;;;;14.45;3.20;;;;;;;24.67;79.87;98796.34;5059458;28;20740;-60
2022/07/09 09:44:37;;;;;;;17.23;3.65;;;;;;;24.63;86.69;98801.13;5060465;28;20105;-58
2022/07/09 09:47:04;;;;;;;16.83;3.70;;;;;;;24.15;88.56;98802.47;5059903;28;20036;-59
2022/07/09 09:49:29;;;;;;;16.52;3.10;;;;;;;23.82;95.47;98798.13;5061081;28;20028;-58
2022/07/09 09:52:04;;;;;;;19.92;3.97;;;;;;;24.01;94.32;98803.63;5059157;28;20051;-56
2022/07/09 09:54:31;;;;;;;16.05;3.50;;;;;;;24.06;96.79;98805.91;5061126;28;20028;-58
2022/07/09 09:56:59;;;;;;;14.57;3.35;;;;;;;24.04;95.64;98795.38;5061561;28;20051;-56
2022/07/09 09:59:24;;;;;;;12.48;3.20;;;;;;;23.79;98.24;98806.38;5060744;28;20028;-56
2022/07/09 10:01:50;;;;;;;19.80;3.88;;;;;;;24.29;100.00;98793.28;5058862;28;20068;-55
2022/07/09 10:04:16;;;;;;;23.65;3.80;;;;;;;24.28;100.00;98802.28;5060002;28;20040;-55
2022/07/09 10:06:41;;;;;;;17.80;3.75;;;;;;;24.66;100.00;98795.50;5059940;28;20155;-56
2022/07/09 10:09:11;;;;;;;15.95;3.47;;;;;;;23.98;98.71;98798.53;5060519;28;20151;-56
2022/07/09 10:11:45;;;;;;;15.68;3.40;;;;;;;24.64;100.00;98792.13;5058345;28;20042;-58
2022/07/09 10:14:23;;;;;;;19.48;3.85;;;;;;;25.44;88.43;98790.44;5057661;28;20028;-56
2022/07/09 10:16:48;;;;;;;14.30;3.20;;;;;;;25.47;86.25;98774.13;5059962;28;20552;-56
2022/07/09 10:19:25;;;;;;;15.43;3.35;;;;;;;25.23;85.66;98771.81;5060247;28;20032;-55
2022/07/09 10:21:55;;;;;;;28.10;3.90;;;;;;;26.49;76.18;98770.97;5058756;28;20053;-57
2022/07/09 10:24:31;;;;;;;13.75;3.45;;;;;;;26.53;75.25;98771.53;5060265;28;20028;-55
2022/07/09 10:27:03;;;;;;;14.90;3.15;;;;;;;26.15;68.40;98770.63;5059673;28;20049;-57
2022/07/09 10:29:29;;;;;;;21.98;3.85;;;;;;;26.21;70.08;98772.75;5060647;28;20029;-55
2022/07/09 10:31:56;;;;;;;17.60;4.20;;;;;;;25.89;73.04;98762.34;5058916;28;20031;-56
2022/07/09 10:34:31;;;;;;;15.35;3.25;;;;;;;25.73;72.90;98768.25;5053507;28;20048;-55
2022/07/09 10:37:04;;;;;;;18.98;3.67;;;;;;;26.40;68.56;98765.66;5055764;28;20043;-58
2022/07/09 10:39:30;;;;;;;15.88;3.72;;;;;;;27.57;65.29;98752.56;5058519;28;20028;-55
2022/07/09 10:42:20;;;;;;;12.73;3.25;;;;;;;27.69;63.11;98758.53;5058252;28;20056;-56
2022/07/09 10:44:46;;;;;;;16.08;3.45;;;;;;;27.06;64.56;98757.53;5053666;28;20033;-55
2022/07/09 10:47:12;;;;;;;12.15;3.25;;;;;;;26.67;65.11;98763.06;5062182;28;20044;-56
2022/07/09 10:49:39;;;;;;;16.30;3.25;;;;;;;25.87;66.98;98759.81;5064134;28;20078;-55
2022/07/09 10:52:06;;;;;;;17.98;4.03;;;;;;;25.67;69.17;98763.47;5051615;28;20094;-56
2022/07/09 10:54:31;;;;;;;18.38;3.80;;;;;;;25.40;67.74;98756.97;5063088;28;20024;-55
2022/07/09 10:56:57;;;;;;;14.90;3.40;;;;;;;25.25;69.10;98758.38;5063482;28;20052;-56
2022/07/09 10:59:24;;;;;;;16.40;3.58;;;;;;;25.01;69.13;98756.88;5064102;28;20056;-56
2022/07/09 11:01:55;;;;;;;14.48;3.47;;;;;;;24.68;68.28;98750.84;5062589;28;20036;-55
2022/07/09 11:04:31;;;;;;;15.20;3.60;;;;;;;24.37;80.29;98752.66;5063276;28;20052;-56
2022/07/09 11:06:56;;;;;;;18.77;3.83;;;;;;;24.84;78.85;98755.69;5062679;28;20041;-57
2022/07/09 11:09:22;;;;;;;14.13;3.30;;;;;;;24.46;81.57;98748.34;5063588;28;20039;-57
2022/07/09 11:11:48;;;;;;;16.83;3.45;;;;;;;24.41;77.56;98760.25;5061860;28;20074;-57
2022/07/09 11:14:13;;;;;;;14.50;3.47;;;;;;;24.04;82.17;98758.06;5062483;28;20103;-56
2022/07/09 11:16:39;;;;;;;19.40;3.88;;;;;;;23.87;87.64;98766.63;5062366;28;20546;-57